This is the latest recevied weather packets stored in our database for station/object IW0REF-14. If no packets are shown the sender has not sent any weather packets the latest 10 day(s).
| Time | Temp. | Humidity | Pressure | Rain* | Wind** | Luminosity | Snow |
|---|---|---|---|---|---|---|---|
| 1777513522 | 11.11° C | 46% | 1013.5 hPa | - | - | - | - |
| 1777512622 | 11.67° C | 39% | 1013.5 hPa | - | - | - | - |
| 1777511722 | 12.22° C | 36% | 1013.5 hPa | - | - | - | - |
| 1777510822 | 12.22° C | 35% | 1013.6 hPa | - | - | - | - |
| 1777509922 | 12.78° C | 33% | 1013.5 hPa | - | - | - | - |
| 1777509021 | 13.33° C | 34% | 1013.5 hPa | - | - | - | - |
| 1777508121 | 13.89° C | 33% | 1013.4 hPa | - | - | - | - |
| 1777507221 | 14.44° C | 31% | 1013.2 hPa | - | - | - | - |
| 1777506321 | 14.44° C | 31% | 1013.2 hPa | - | - | - | - |
| 1777505421 | 14.44° C | 31% | 1013.2 hPa | - | - | - | - |
| 1777504510 | 14.44° C | 31% | 1013.2 hPa | - | - | - | - |
| 1777503610 | 14.44° C | 31% | 1013.2 hPa | - | - | - | - |
| 1777502710 | 14.44° C | 31% | 1013.2 hPa | - | - | - | - |
| 1777501810 | 13.89° C | 32% | 1013.2 hPa | - | - | - | - |
| 1777500910 | 13.89° C | 32% | 1013.2 hPa | - | - | - | - |
| 1777500010 | 13.89° C | 33% | 1013.1 hPa | - | - | - | - |
| 1777499110 | 14.44° C | 31% | 1013.2 hPa | - | - | - | - |
| 1777498209 | 14.44° C | 31% | 1013.3 hPa | - | - | - | - |
| 1777497310 | 14.44° C | 31% | 1013.2 hPa | - | - | - | - |
| 1777496409 | 15° C | 30% | 1013.2 hPa | - | - | - | - |
| 1777495509 | 14.44° C | 31% | 1013.4 hPa | - | - | - | - |
| 1777494609 | 15° C | 29% | 1013.2 hPa | - | - | - | - |
| 1777493712 | 15° C | 29% | 1013.2 hPa | - | - | - | - |
| 1777492810 | 13.89° C | 30% | 1013.2 hPa | - | - | - | - |
| 1777491909 | 13.33° C | 29% | 1013.1 hPa | - | - | - | - |
* Rain since midnight (hover to see other rain measurements)
** Current wind speed in m/s (hover to see current wind gust speed)